Terminal Aerodrome Forecast
Issued by NWS

Home | Current Version | Previous Version | Text Only | Print | Product List | Glossary On
Versions: 1 2 3 4 5 6 7 8 9 10 11 12 13 14
000
FTUS42 KTBW 262338
TAFRSW
TAF
KRSW 262338Z 2700/2724 26010KT P6SM SCT030
     FM271000 22004KT P6SM SCT010 SCT250
     FM271500 28008KT P6SM SCT020 BKN250
     FM272000 25012KT P6SM SCT030 BKN100=

USA.gov is the U.S. government's official web portal to all federal, state and local government web resources and services.